Iberia, Ohio
Current Conditions -  °F | °C
As of 11:53 PM on Saturday 22 Nov 2014 (Local Time) from KMNN Reporting Station
Overcast Overcast  
Wind Chill: 43°   Ceiling: 4200
Heat Index: 49°   Visibility: 10mi
Dew Point: 36°   Wind: 15mph
Humidity: 61%   Direction: 210°SSW
Pressure: 30.05"   Gusts: NA
Location:  40.67°N, 82.84°W
Report Text: KMNN 230453Z AUTO 21013KT 10SM OVC042 09/02 A3005 RMK AO2 SLP180 T00940022 400941072 TSNO
Loading
Personal Weather Stations






























Interactive Weather Map New forecast layout! Learn more

10-Day Weather Forecast

Advertisements
Track Severe Weather on mobile